Terminal Aerodrome Forecast
Issued by NWS Kansas City/Pleasant Hill, MO

Home | Current Version | Previous Version | Text Only | Print | Product List | Glossary On
Versions: 1 2 3 4 5 6 7 8 9 10 11 12 13 14 15 16
000
FTUS43 KEAX 281200 AAA
TAFMCI
TAF AMD
KMCI 281217Z 2812/2912 13009KT 6SM -TSRA BR BKN045CB OVC150
      TEMPO 2812/2813 1 1/2SM TSRA BKN025CB
     FM281600 15011KT P6SM VCTS SCT035CB BKN180
     FM282100 18013G22KT P6SM VCTS BKN035CB
      TEMPO 2823/2903 19008KT 6SM -TSRA BR BKN030CB
     FM290400 18007KT P6SM BKN040=

USA.gov is the U.S. government's official web portal to all federal, state and local government web resources and services.